createdAt,value
2022-10-01T00:00:00.038Z,13.31
2022-10-01T00:02:29.702Z,13.30
2022-10-01T00:04:58.189Z,13.28
2022-10-01T00:07:26.214Z,13.23
2022-10-01T00:09:54.207Z,13.17
2022-10-01T00:12:22.480Z,13.14
2022-10-01T00:14:51.086Z,13.12
2022-10-01T00:17:19.351Z,13.09
2022-10-01T00:19:48.973Z,13.08
2022-10-01T00:22:18.941Z,13.05
2022-10-01T00:24:47.885Z,13.06
2022-10-01T00:27:15.866Z,13.07
2022-10-01T00:29:45.271Z,13.10
2022-10-01T00:32:13.588Z,13.09
2022-10-01T00:34:41.617Z,13.10
2022-10-01T00:37:11.346Z,13.10
2022-10-01T00:39:39.688Z,13.12
2022-10-01T00:42:18.123Z,13.14
2022-10-01T00:44:46.819Z,13.16
2022-10-01T00:47:24.562Z,13.13
2022-10-01T00:49:59.531Z,13.15
2022-10-01T00:52:32.343Z,13.15
2022-10-01T00:55:04.899Z,13.13
2022-10-01T00:57:33.829Z,13.12
2022-10-01T01:00:06.831Z,13.09
2022-10-01T01:02:35.113Z,13.05
2022-10-01T01:05:03.996Z,13.00
2022-10-01T01:07:35.000Z,12.95
2022-10-01T01:10:04.940Z,12.91
2022-10-01T01:12:55.962Z,12.89
2022-10-01T01:15:29.674Z,12.88
2022-10-01T01:18:07.518Z,12.84
2022-10-01T01:21:01.100Z,12.85
2022-10-01T01:23:52.515Z,12.88
2022-10-01T01:26:31.562Z,12.87
2022-10-01T01:29:07.672Z,12.85
2022-10-01T01:31:41.131Z,12.85
2022-10-01T01:34:14.081Z,12.83
2022-10-01T01:36:48.100Z,12.82
2022-10-01T01:39:18.704Z,12.81
2022-10-01T01:41:52.516Z,12.82
2022-10-01T01:44:26.939Z,12.83
2022-10-01T01:46:57.489Z,12.84
2022-10-01T01:49:26.594Z,12.84
2022-10-01T01:51:59.553Z,12.85
2022-10-01T01:54:30.403Z,12.86
2022-10-01T01:56:59.520Z,12.88
2022-10-01T01:59:29.656Z,12.89
2022-10-01T02:01:58.903Z,12.91
2022-10-01T02:04:30.653Z,12.93
2022-10-01T02:07:16.566Z,12.94
2022-10-01T02:09:53.298Z,12.95
2022-10-01T02:12:35.542Z,12.94
2022-10-01T02:15:10.722Z,12.95
2022-10-01T02:17:50.580Z,12.93
2022-10-01T02:20:28.179Z,13.04
2022-10-01T02:23:00.625Z,13.12
2022-10-01T02:25:34.685Z,13.21
2022-10-01T02:28:06.914Z,13.30
2022-10-01T02:30:39.391Z,13.34
2022-10-01T02:33:10.647Z,13.40
2022-10-01T02:35:39.244Z,13.48
2022-10-01T02:38:09.552Z,13.52
2022-10-01T02:40:41.928Z,13.56
2022-10-01T02:43:14.512Z,13.56
2022-10-01T02:45:47.372Z,13.58
2022-10-01T02:48:17.491Z,13.60
2022-10-01T02:50:51.024Z,13.60
2022-10-01T02:53:23.265Z,13.64
2022-10-01T02:55:53.624Z,13.62
2022-10-01T02:58:21.310Z,13.69
2022-10-01T03:00:50.808Z,13.73
2022-10-01T03:03:18.771Z,13.79
2022-10-01T03:05:47.066Z,13.84
2022-10-01T03:08:15.097Z,13.87
2022-10-01T03:10:46.577Z,13.84
2022-10-01T03:13:15.247Z,13.91
2022-10-01T03:15:43.398Z,13.92
2022-10-01T03:18:12.840Z,13.95
2022-10-01T03:20:41.116Z,13.95
2022-10-01T03:23:09.142Z,13.93
2022-10-01T03:25:37.440Z,14.00
2022-10-01T03:28:05.950Z,14.04
2022-10-01T03:30:34.345Z,14.05
2022-10-01T03:33:02.345Z,14.06
2022-10-01T03:35:32.242Z,14.06
2022-10-01T03:38:00.500Z,14.09
2022-10-01T03:40:28.884Z,14.10
2022-10-01T03:42:57.156Z,14.08
2022-10-01T03:45:25.410Z,14.01
2022-10-01T03:47:53.980Z,14.00
2022-10-01T03:50:22.570Z,13.94
2022-10-01T03:52:51.972Z,13.99
2022-10-01T03:55:19.972Z,14.01
2022-10-01T03:57:48.641Z,13.90
2022-10-01T04:00:18.298Z,14.06
2022-10-01T04:02:46.795Z,14.05
2022-10-01T04:05:15.098Z,14.03
2022-10-01T04:07:43.138Z,14.13
2022-10-01T04:10:12.886Z,14.23
2022-10-01T04:12:41.093Z,14.27
2022-10-01T04:15:09.997Z,14.37
2022-10-01T04:17:40.680Z,14.48
2022-10-01T04:20:10.757Z,14.58
2022-10-01T04:22:41.793Z,14.60
2022-10-01T04:25:12.710Z,14.66
2022-10-01T04:27:42.560Z,14.65
2022-10-01T04:30:11.443Z,14.72
2022-10-01T04:32:39.887Z,14.68
2022-10-01T04:35:11.209Z,14.77
2022-10-01T04:37:39.417Z,14.83
2022-10-01T04:40:09.690Z,14.77
2022-10-01T04:42:41.964Z,14.83
2022-10-01T04:45:12.001Z,14.75
2022-10-01T04:47:47.581Z,14.79
2022-10-01T04:50:16.340Z,14.80
2022-10-01T04:52:47.514Z,14.85
2022-10-01T04:55:16.816Z,14.78
2022-10-01T04:57:46.298Z,14.83
2022-10-01T05:00:17.091Z,14.90
2022-10-01T05:02:46.308Z,14.86
2022-10-01T05:05:15.122Z,14.94
2022-10-01T05:07:43.607Z,14.94
2022-10-01T05:10:13.744Z,14.98
2022-10-01T05:12:42.328Z,14.87
2022-10-01T05:15:12.473Z,15.12
2022-10-01T05:17:40.931Z,15.08
2022-10-01T05:20:16.088Z,15.14
2022-10-01T05:22:45.248Z,15.07
2022-10-01T05:25:14.475Z,15.19
2022-10-01T05:27:42.699Z,15.10
2022-10-01T05:30:20.107Z,15.13
2022-10-01T05:32:56.322Z,15.17
2022-10-01T05:35:25.233Z,15.18
2022-10-01T05:37:57.688Z,15.38
2022-10-01T05:40:27.416Z,15.25
2022-10-01T05:42:57.034Z,15.52
2022-10-01T05:45:28.565Z,15.56
2022-10-01T05:48:00.906Z,15.53
2022-10-01T05:50:31.469Z,15.55
2022-10-01T05:53:00.141Z,15.66
2022-10-01T05:55:31.786Z,15.70
2022-10-01T05:58:02.563Z,15.70
2022-10-01T06:00:33.875Z,15.65
2022-10-01T06:03:03.389Z,15.64
2022-10-01T06:05:33.029Z,15.70
2022-10-01T06:08:01.999Z,15.72
2022-10-01T06:10:30.467Z,15.76
2022-10-01T06:13:01.100Z,15.75
2022-10-01T06:15:29.948Z,15.76
2022-10-01T06:18:03.134Z,15.78
2022-10-01T06:20:32.032Z,15.75
2022-10-01T06:23:00.114Z,15.89
2022-10-01T06:25:30.680Z,15.92
2022-10-01T06:28:00.680Z,15.96
2022-10-01T06:30:31.924Z,15.94
2022-10-01T06:33:03.620Z,16.08
2022-10-01T06:35:32.473Z,16.09
2022-10-01T06:38:02.427Z,16.09
2022-10-01T06:40:31.132Z,16.16
2022-10-01T06:42:59.868Z,16.14
2022-10-01T06:45:29.148Z,16.21
2022-10-01T06:47:59.615Z,16.21
2022-10-01T06:50:30.036Z,16.19
2022-10-01T06:52:59.051Z,16.19
2022-10-01T06:55:29.974Z,16.15
2022-10-01T06:57:59.485Z,16.35
2022-10-01T07:00:29.405Z,16.38
2022-10-01T07:02:57.858Z,16.30
2022-10-01T07:05:26.784Z,16.35
2022-10-01T07:07:56.499Z,16.31
2022-10-01T07:10:25.444Z,16.27
2022-10-01T07:12:53.495Z,16.39
2022-10-01T07:15:23.901Z,16.36
2022-10-01T07:17:53.420Z,16.40
2022-10-01T07:20:22.276Z,16.43
2022-10-01T07:22:50.588Z,16.39
2022-10-01T07:25:20.011Z,16.48
2022-10-01T07:27:48.329Z,16.56
2022-10-01T07:30:16.456Z,16.47
2022-10-01T07:32:44.874Z,16.53
2022-10-01T07:35:13.636Z,16.44
2022-10-01T07:37:41.710Z,16.46
2022-10-01T07:40:10.629Z,16.56
2022-10-01T07:42:41.142Z,16.56
2022-10-01T07:45:10.568Z,16.49
2022-10-01T07:47:38.940Z,16.55
2022-10-01T07:50:07.929Z,16.44
2022-10-01T07:52:36.014Z,16.63
2022-10-01T07:55:05.643Z,16.62
2022-10-01T07:57:34.262Z,16.74
2022-10-01T08:00:03.771Z,16.75
2022-10-01T08:02:40.366Z,16.60
2022-10-01T08:05:19.019Z,16.63
2022-10-01T08:07:47.762Z,16.65
2022-10-01T08:10:17.787Z,16.66
2022-10-01T08:12:46.179Z,16.66
2022-10-01T08:15:17.360Z,16.73
2022-10-01T08:17:46.162Z,16.69
2022-10-01T08:20:16.275Z,16.79
2022-10-01T08:22:44.257Z,16.70
2022-10-01T08:25:12.723Z,16.74
2022-10-01T08:27:40.913Z,16.72
2022-10-01T08:30:10.016Z,16.73
2022-10-01T08:32:39.686Z,16.73
2022-10-01T08:35:08.731Z,16.71
2022-10-01T08:37:36.797Z,16.80
2022-10-01T08:40:06.012Z,16.83
2022-10-01T08:42:51.583Z,16.79
2022-10-01T08:45:24.689Z,16.76
2022-10-01T08:48:01.757Z,16.80
2022-10-01T08:50:40.811Z,16.85
2022-10-01T08:53:30.285Z,16.84
2022-10-01T08:56:00.899Z,16.85
2022-10-01T08:58:37.897Z,16.93
2022-10-01T09:01:06.664Z,16.96
2022-10-01T09:03:36.465Z,16.95
2022-10-01T09:06:16.720Z,16.90
2022-10-01T09:08:56.980Z,16.90
2022-10-01T09:11:50.200Z,16.98
2022-10-01T09:14:33.084Z,16.96
2022-10-01T09:17:10.817Z,16.87
2022-10-01T09:20:00.185Z,17.04
2022-10-01T09:22:37.871Z,16.95
2022-10-01T09:25:27.054Z,16.83
2022-10-01T09:28:02.781Z,16.88
2022-10-01T09:30:32.848Z,16.91
2022-10-01T09:33:05.837Z,16.98
2022-10-01T09:35:45.054Z,16.93
2022-10-01T09:38:19.988Z,17.01
2022-10-01T09:40:54.854Z,17.05
2022-10-01T09:43:24.260Z,17.09
2022-10-01T09:45:53.063Z,17.08
2022-10-01T09:48:27.752Z,17.07
2022-10-01T09:51:02.477Z,17.08
2022-10-01T09:53:37.001Z,17.02
2022-10-01T09:56:14.603Z,17.07
2022-10-01T09:58:48.805Z,17.10
2022-10-01T10:01:22.858Z,17.09
2022-10-01T10:03:56.877Z,17.15
2022-10-01T10:06:29.476Z,17.13
2022-10-01T10:08:59.579Z,17.18
2022-10-01T10:11:30.093Z,17.27
2022-10-01T10:14:01.009Z,17.22
2022-10-01T10:16:31.579Z,17.09
2022-10-01T10:19:03.932Z,17.13
2022-10-01T10:21:35.086Z,17.14
2022-10-01T10:24:05.703Z,17.12
2022-10-01T10:26:36.100Z,16.98
2022-10-01T10:29:07.173Z,17.04
2022-10-01T10:31:41.593Z,17.02
2022-10-01T10:34:17.690Z,16.94
2022-10-01T10:36:48.613Z,17.11
2022-10-01T10:39:22.743Z,17.04
2022-10-01T10:41:53.995Z,17.13
2022-10-01T10:44:25.123Z,17.01
2022-10-01T10:46:55.303Z,17.12
2022-10-01T10:49:28.212Z,17.11
2022-10-01T10:52:00.854Z,17.26
2022-10-01T10:54:32.615Z,17.17
2022-10-01T10:57:03.241Z,17.24
2022-10-01T10:59:33.523Z,17.13
2022-10-01T11:02:04.363Z,17.33
2022-10-01T11:04:41.038Z,17.34
2022-10-01T11:07:13.315Z,17.41
2022-10-01T11:10:01.973Z,17.41
2022-10-01T11:12:46.202Z,17.51
2022-10-01T11:15:35.579Z,17.52
2022-10-01T11:18:27.438Z,17.58
2022-10-01T11:21:11.426Z,17.55
2022-10-01T11:23:57.616Z,17.65
2022-10-01T11:26:42.168Z,17.87
2022-10-01T11:29:22.949Z,17.78
2022-10-01T11:31:58.994Z,17.87
2022-10-01T11:34:42.927Z,18.07
2022-10-01T11:37:27.825Z,18.01
2022-10-01T11:40:00.422Z,17.99
2022-10-01T11:42:35.549Z,18.14
2022-10-01T11:45:11.192Z,18.08
2022-10-01T11:47:45.246Z,18.32
2022-10-01T11:50:19.519Z,18.23
2022-10-01T11:52:53.498Z,18.51
2022-10-01T11:55:44.806Z,18.49
2022-10-01T11:58:36.221Z,18.67
2022-10-01T12:01:10.976Z,18.64
2022-10-01T12:03:51.761Z,18.64
2022-10-01T12:06:26.783Z,18.59
2022-10-01T12:09:03.007Z,18.27
2022-10-01T12:11:38.499Z,18.56
2022-10-01T12:14:12.401Z,18.67
2022-10-01T12:16:47.242Z,18.86
2022-10-01T12:19:21.665Z,19.14
2022-10-01T12:21:55.541Z,19.08
2022-10-01T12:24:29.743Z,18.92
2022-10-01T12:27:15.300Z,19.07
2022-10-01T12:29:52.196Z,18.94
2022-10-01T12:32:30.199Z,18.92
2022-10-01T12:35:11.081Z,18.83
2022-10-01T12:38:02.760Z,18.60
2022-10-01T12:40:38.468Z,18.64
2022-10-01T12:43:39.052Z,18.63
2022-10-01T12:46:18.071Z,18.87
2022-10-01T12:48:54.866Z,18.79
2022-10-01T12:51:45.730Z,18.77
2022-10-01T12:54:41.730Z,18.80
2022-10-01T12:57:24.615Z,18.89
2022-10-01T13:00:07.870Z,18.82
2022-10-01T13:03:01.599Z,18.73
2022-10-01T13:05:39.567Z,19.04
2022-10-01T13:08:29.237Z,19.05
2022-10-01T13:11:05.455Z,19.08
2022-10-01T13:13:34.911Z,19.12
2022-10-01T13:16:11.923Z,18.98
2022-10-01T13:18:51.452Z,18.92
2022-10-01T13:21:32.315Z,18.93
2022-10-01T13:24:09.496Z,18.95
2022-10-01T13:26:44.413Z,18.94
2022-10-01T13:29:28.002Z,19.13
2022-10-01T13:31:59.760Z,19.01
2022-10-01T13:34:59.141Z,19.19
2022-10-01T13:37:37.510Z,19.27
2022-10-01T13:40:22.106Z,19.23
2022-10-01T13:42:50.997Z,19.44
2022-10-01T13:45:28.075Z,19.75
2022-10-01T13:48:09.111Z,20.05
2022-10-01T13:50:40.024Z,20.15
2022-10-01T13:53:14.861Z,20.43
2022-10-01T13:55:45.698Z,20.79
2022-10-01T13:58:24.339Z,20.89
2022-10-01T14:00:54.434Z,21.00
2022-10-01T14:03:45.030Z,21.03
2022-10-01T14:06:20.442Z,20.93
2022-10-01T14:08:53.216Z,21.11
2022-10-01T14:11:43.871Z,20.96
2022-10-01T14:14:34.898Z,20.87
2022-10-01T14:17:03.439Z,21.08
2022-10-01T14:19:33.403Z,21.21
2022-10-01T14:22:18.297Z,21.26
2022-10-01T14:25:10.570Z,21.01
2022-10-01T14:27:46.640Z,21.07
2022-10-01T14:30:18.084Z,20.91
2022-10-01T14:33:15.012Z,20.78
2022-10-01T14:35:49.132Z,20.79
2022-10-01T14:38:22.082Z,20.71
2022-10-01T14:40:52.049Z,20.62
2022-10-01T14:43:22.485Z,20.68
2022-10-01T14:45:57.080Z,20.51
2022-10-01T14:48:26.402Z,20.48
2022-10-01T14:50:58.371Z,20.39
2022-10-01T14:53:28.123Z,20.19
2022-10-01T14:56:00.011Z,20.36
2022-10-01T14:58:31.817Z,20.41
2022-10-01T15:01:01.576Z,20.54
2022-10-01T15:03:37.785Z,20.46
2022-10-01T15:06:13.971Z,20.58
2022-10-01T15:08:43.892Z,20.54
2022-10-01T15:11:17.391Z,20.63
2022-10-01T15:13:47.506Z,20.61
2022-10-01T15:16:18.679Z,20.54
2022-10-01T15:18:50.217Z,20.46
2022-10-01T15:21:25.639Z,20.62
2022-10-01T15:23:54.133Z,20.60
2022-10-01T15:26:25.186Z,20.52
2022-10-01T15:29:03.662Z,20.38
2022-10-01T15:31:33.078Z,20.42
2022-10-01T15:34:03.334Z,20.37
2022-10-01T15:36:35.303Z,20.34
2022-10-01T15:39:05.733Z,20.35
2022-10-01T15:41:34.997Z,20.27
2022-10-01T15:44:05.375Z,20.19
2022-10-01T15:46:35.972Z,20.27
2022-10-01T15:49:21.791Z,20.08
2022-10-01T15:52:14.633Z,20.13
2022-10-01T15:54:44.963Z,20.07
2022-10-01T15:57:18.666Z,20.05
2022-10-01T15:59:47.539Z,20.04
2022-10-01T16:02:21.765Z,20.03
2022-10-01T16:04:52.842Z,20.01
2022-10-01T16:07:28.095Z,19.87
2022-10-01T16:09:59.364Z,19.83
2022-10-01T16:12:29.623Z,19.83
2022-10-01T16:14:59.744Z,19.80
2022-10-01T16:17:35.201Z,19.73
2022-10-01T16:20:34.631Z,19.65
2022-10-01T16:23:41.766Z,19.51
2022-10-01T16:26:38.809Z,19.55
2022-10-01T16:29:20.367Z,19.58
2022-10-01T16:31:48.937Z,19.51
2022-10-01T16:34:19.084Z,19.52
2022-10-01T16:36:47.364Z,19.48
2022-10-01T16:39:17.049Z,19.51
2022-10-01T16:41:56.805Z,19.54
2022-10-01T16:44:39.147Z,19.50
2022-10-01T16:47:08.229Z,19.57
2022-10-01T16:49:36.512Z,19.61
2022-10-01T16:52:06.213Z,19.56
2022-10-01T16:54:35.723Z,19.51
2022-10-01T16:57:04.159Z,19.40
2022-10-01T16:59:33.765Z,19.42
2022-10-01T17:02:02.197Z,19.37
2022-10-01T17:04:33.982Z,19.35
2022-10-01T17:07:02.655Z,19.36
2022-10-01T17:09:31.264Z,19.30
2022-10-01T17:12:01.721Z,19.32
2022-10-01T17:14:29.798Z,19.21
2022-10-01T17:16:58.123Z,19.35
2022-10-01T17:19:26.767Z,19.31
2022-10-01T17:21:55.826Z,19.35
2022-10-01T17:24:24.077Z,19.32
2022-10-01T17:26:52.080Z,19.20
2022-10-01T17:29:21.427Z,19.12
2022-10-01T17:31:53.344Z,19.25
2022-10-01T17:34:22.073Z,18.99
2022-10-01T17:36:50.571Z,19.05
2022-10-01T17:39:18.748Z,19.12
2022-10-01T17:41:46.889Z,19.09
2022-10-01T17:44:15.238Z,19.06
2022-10-01T17:46:44.643Z,18.94
2022-10-01T17:49:12.958Z,18.94
2022-10-01T17:51:41.214Z,18.96
2022-10-01T17:54:09.215Z,19.06
2022-10-01T17:56:38.794Z,19.07
2022-10-01T17:59:07.214Z,19.02
2022-10-01T18:01:35.527Z,19.00
2022-10-01T18:04:05.661Z,18.94
2022-10-01T18:06:34.206Z,18.88
2022-10-01T18:09:02.997Z,18.81
2022-10-01T18:11:31.366Z,18.63
2022-10-01T18:13:59.984Z,18.64
2022-10-01T18:16:28.830Z,18.65
2022-10-01T18:21:48.662Z,18.55
2022-10-01T18:24:17.615Z,18.52
2022-10-01T18:26:46.578Z,18.53
2022-10-01T18:29:19.231Z,18.48
2022-10-01T18:31:47.586Z,18.44
2022-10-01T18:34:22.785Z,18.33
2022-10-01T18:36:59.198Z,18.43
2022-10-01T18:39:32.540Z,18.37
2022-10-01T18:42:03.518Z,18.25
2022-10-01T18:44:32.121Z,18.19
2022-10-01T18:47:10.508Z,18.15
2022-10-01T18:50:02.622Z,18.15
2022-10-01T18:52:46.851Z,18.15
2022-10-01T18:55:37.758Z,17.98
2022-10-01T18:58:25.134Z,18.04
2022-10-01T19:01:03.363Z,18.02
2022-10-01T19:04:00.191Z,18.15
2022-10-01T19:06:49.792Z,18.04
2022-10-01T19:09:32.681Z,18.04
2022-10-01T19:12:15.086Z,18.04
2022-10-01T19:14:55.848Z,18.00
2022-10-01T19:17:41.948Z,17.90
2022-10-01T19:20:29.348Z,17.93
2022-10-01T19:23:14.147Z,17.83
2022-10-01T19:25:49.438Z,17.81
2022-10-01T19:28:33.900Z,17.77
2022-10-01T19:31:13.485Z,17.78
2022-10-01T19:33:47.714Z,17.74
2022-10-01T19:36:25.994Z,17.62
2022-10-01T19:39:00.186Z,17.69
2022-10-01T19:41:37.264Z,17.66
2022-10-01T19:44:13.226Z,17.65
2022-10-01T19:46:45.350Z,17.54
2022-10-01T19:49:20.462Z,17.55
2022-10-01T19:51:52.648Z,17.52
2022-10-01T19:54:25.078Z,17.44
2022-10-01T19:56:58.295Z,17.40
2022-10-01T19:59:29.987Z,17.34
2022-10-01T20:02:04.599Z,17.36
2022-10-01T20:04:39.098Z,17.32
2022-10-01T20:07:12.001Z,17.28
2022-10-01T20:09:46.032Z,17.18
2022-10-01T20:12:27.459Z,17.13
2022-10-01T20:15:09.905Z,17.15
2022-10-01T20:17:53.806Z,17.09
2022-10-01T20:20:27.709Z,17.08
2022-10-01T20:23:15.155Z,17.01
2022-10-01T20:25:51.699Z,16.96
2022-10-01T20:28:28.613Z,16.93
2022-10-01T20:31:02.795Z,17.00
2022-10-01T20:33:43.065Z,16.90
2022-10-01T20:36:18.885Z,16.98
2022-10-01T20:38:51.964Z,16.97
2022-10-01T20:41:24.231Z,16.87
2022-10-01T20:43:59.566Z,16.85
2022-10-01T20:46:36.330Z,16.84
2022-10-01T20:49:13.181Z,16.91
2022-10-01T20:51:49.229Z,16.80
2022-10-01T20:54:22.525Z,16.85
2022-10-01T20:57:00.970Z,16.87
2022-10-01T20:59:35.015Z,16.81
2022-10-01T21:02:06.717Z,16.79
2022-10-01T21:04:40.739Z,16.70
2022-10-01T21:07:26.188Z,16.81
2022-10-01T21:09:58.458Z,16.79
2022-10-01T21:12:34.780Z,16.78
2022-10-01T21:15:05.093Z,16.75
2022-10-01T21:17:43.623Z,16.75
2022-10-01T21:20:29.545Z,16.76
2022-10-01T21:23:08.309Z,16.79
2022-10-01T21:25:50.372Z,16.65
2022-10-01T21:28:36.176Z,16.74
2022-10-01T21:31:18.126Z,16.62
2022-10-01T21:33:54.145Z,16.91
2022-10-01T21:36:28.541Z,16.86
2022-10-01T21:39:03.605Z,16.89
2022-10-01T21:41:53.646Z,16.95
2022-10-01T21:44:49.545Z,17.00
2022-10-01T21:47:32.282Z,17.06
2022-10-01T21:50:09.450Z,17.07
2022-10-01T21:52:47.763Z,17.10
2022-10-01T21:55:34.124Z,17.11
2022-10-01T21:58:23.605Z,16.98
2022-10-01T22:00:58.641Z,16.80
2022-10-01T22:03:36.184Z,16.81
2022-10-01T22:06:12.823Z,16.97
2022-10-01T22:08:54.191Z,16.93
2022-10-01T22:11:25.471Z,16.91
2022-10-01T22:13:57.650Z,16.76
2022-10-01T22:16:31.102Z,16.73
2022-10-01T22:19:04.683Z,16.80
2022-10-01T22:21:39.515Z,16.65
2022-10-01T22:24:14.445Z,16.69
2022-10-01T22:26:48.083Z,16.78
2022-10-01T22:29:20.062Z,16.75
2022-10-01T22:31:52.661Z,16.69
2022-10-01T22:34:26.562Z,16.74
2022-10-01T22:37:01.366Z,16.69
2022-10-01T22:39:34.668Z,16.73
2022-10-01T22:42:07.267Z,16.63
2022-10-01T22:44:35.628Z,16.69
2022-10-01T22:47:26.592Z,16.64
2022-10-01T22:50:11.114Z,16.58
2022-10-01T22:52:47.516Z,16.62
2022-10-01T22:55:26.221Z,16.57
2022-10-01T22:58:06.241Z,16.56
2022-10-01T23:00:45.578Z,16.56
2022-10-01T23:03:20.180Z,16.54
2022-10-01T23:06:02.056Z,16.55
2022-10-01T23:08:37.937Z,16.46
2022-10-01T23:11:19.523Z,16.46
2022-10-01T23:13:57.463Z,16.41
2022-10-01T23:16:35.695Z,16.34
2022-10-01T23:19:20.854Z,16.42
2022-10-01T23:22:00.596Z,16.41
2022-10-01T23:24:47.019Z,16.36
2022-10-01T23:27:31.787Z,16.35
2022-10-01T23:30:08.043Z,16.31
2022-10-01T23:32:59.456Z,16.28
2022-10-01T23:35:35.348Z,16.30
2022-10-01T23:38:18.563Z,16.22
2022-10-01T23:40:51.766Z,16.22
2022-10-01T23:43:27.187Z,16.20
2022-10-01T23:46:00.669Z,16.19
2022-10-01T23:48:34.792Z,16.16
2022-10-01T23:51:07.480Z,16.12
2022-10-01T23:53:45.301Z,16.12
2022-10-01T23:56:37.311Z,16.13
2022-10-01T23:59:13.856Z,16.10
